Time;durP1;ratioP1;P1;durP2;ratioP2;P2;SDS_P1;SDS_P2;PMS_P1;PMS_P2;Temp;Humidity;BMP_temperature;BMP_pressure;BME280_temperature;BME280_humidity;BME280_pressure;Samples;Min_cycle;Max_cycle;Signal;HPM_P1;HPM_P2
2021/07/24 00:00:44;;;;;;;7.80;7.10;;;;;;;;;;5055013;28;20395;-80
2021/07/24 00:03:10;;;;;;;7.97;6.77;;;;;;;;;;5054686;28;20393;-81
2021/07/24 00:05:36;;;;;;;11.33;7.70;;;;;;;;;;5054678;28;20430;-80
2021/07/24 00:08:02;;;;;;;9.07;8.17;;;;;;;;;;5053721;28;20420;-79
2021/07/24 00:10:28;;;;;;;8.20;6.93;;;;;;;;;;5055155;28;20435;-78
2021/07/24 00:12:54;;;;;;;13.00;8.13;;;;;;;;;;5054511;28;20424;-78
2021/07/24 00:15:20;;;;;;;10.07;7.73;;;;;;;;;;5053370;28;20436;-81
2021/07/24 00:17:46;;;;;;;9.77;7.07;;;;;;;;;;5053394;28;20448;-79
2021/07/24 00:20:12;;;;;;;11.20;7.57;;;;;;;;;;5054798;28;20952;-78
2021/07/24 00:22:38;;;;;;;13.20;7.90;;;;;;;;;;5054756;28;20482;-78
2021/07/24 00:25:04;;;;;;;9.80;8.30;;;;;;;;;;5052967;28;20444;-78
2021/07/24 00:27:30;;;;;;;10.40;7.80;;;;;;;;;;5054600;28;20416;-80
2021/07/24 00:29:56;;;;;;;8.57;7.33;;;;;;;;;;5054563;28;20401;-79
2021/07/24 00:32:22;;;;;;;8.73;7.83;;;;;;;;;;5053163;28;20410;-79
2021/07/24 00:34:48;;;;;;;9.63;8.63;;;;;;;;;;5052744;28;20415;-80
2021/07/24 00:37:18;;;;;;;8.60;7.70;;;;;;;;;;5054367;28;20412;-79
2021/07/24 00:39:44;;;;;;;9.63;7.80;;;;;;;;;;5054188;28;20455;-78
2021/07/24 00:42:26;;;;;;;10.93;9.10;;;;;;;;;;5054123;28;20770;-79
2021/07/24 00:44:54;;;;;;;10.30;8.50;;;;;;;;;;5053842;28;20418;-80
2021/07/24 00:47:27;;;;;;;10.33;9.23;;;;;;;;;;5054091;28;20434;-76
2021/07/24 00:49:54;;;;;;;11.40;8.57;;;;;;;;;;5054148;28;20392;-78
2021/07/24 00:52:20;;;;;;;9.67;8.63;;;;;;;;;;5053940;28;20499;-80
2021/07/24 00:54:46;;;;;;;11.50;8.43;;;;;;;;;;5053585;28;20445;-78
2021/07/24 00:57:13;;;;;;;15.50;9.70;;;;;;;;;;5053759;28;20822;-79
2021/07/24 00:59:39;;;;;;;10.63;8.30;;;;;;;;;;5053973;28;20464;-78
2021/07/24 01:02:05;;;;;;;13.10;9.30;;;;;;;;;;5054028;28;20402;-78
2021/07/24 01:04:31;;;;;;;11.13;9.20;;;;;;;;;;5053376;28;20426;-78
2021/07/24 01:06:57;;;;;;;11.70;9.33;;;;;;;;;;5053661;28;20868;-80
2021/07/24 01:09:24;;;;;;;11.20;8.10;;;;;;;;;;5053574;28;20391;-78
2021/07/24 01:11:50;;;;;;;11.90;8.73;;;;;;;;;;5053749;28;20387;-77
2021/07/24 01:14:16;;;;;;;13.03;9.07;;;;;;;;;;5053339;28;20436;-79
2021/07/24 01:16:42;;;;;;;12.13;8.50;;;;;;;;;;5053749;28;20947;-81
2021/07/24 01:19:08;;;;;;;10.33;8.93;;;;;;;;;;5053490;28;20467;-79
2021/07/24 01:21:34;;;;;;;9.37;8.43;;;;;;;;;;5053585;28;20448;-79
2021/07/24 01:24:00;;;;;;;9.50;8.50;;;;;;;;;;5053208;28;20404;-80
2021/07/24 01:26:27;;;;;;;12.47;9.80;;;;;;;;;;5053601;28;20387;-78
2021/07/24 01:28:53;;;;;;;10.60;9.50;;;;;;;;;;5056247;28;20770;-80
2021/07/24 01:31:20;;;;;;;12.03;9.77;;;;;;;;;;5052806;28;20423;-79
2021/07/24 01:33:46;;;;;;;9.83;8.80;;;;;;;;;;5052453;28;20420;-77
2021/07/24 01:36:11;;;;;;;10.83;9.00;;;;;;;;;;5052449;28;20459;-79
2021/07/24 01:38:38;;;;;;;9.70;8.57;;;;;;;;;;5055360;28;20434;-79
2021/07/24 01:41:05;;;;;;;10.57;9.47;;;;;;;;;;5053154;28;20438;-79
2021/07/24 01:43:31;;;;;;;11.73;9.63;;;;;;;;;;5052872;28;20429;-78
2021/07/24 01:45:57;;;;;;;15.33;10.87;;;;;;;;;;5053159;28;20435;-81
2021/07/24 01:48:33;;;;;;;11.57;10.37;;;;;;;;;;5053177;28;20408;-79
2021/07/24 01:53:46;;;;;;;11.63;10.10;;;;;;;;;;5052994;28;20386;-80
2021/07/24 01:56:14;;;;;;;10.83;9.73;;;;;;;;;;5053126;28;20779;-78
2021/07/24 01:58:40;;;;;;;12.20;9.93;;;;;;;;;;5051760;28;20960;-81
2021/07/24 02:01:06;;;;;;;13.43;10.83;;;;;;;;;;5057383;28;20398;-79
2021/07/24 02:03:43;;;;;;;14.43;11.23;;;;;;;;;;5058193;28;20390;-79
2021/07/24 02:06:13;;;;;;;12.73;11.27;;;;;;;;;;5058408;28;20426;-78
2021/07/24 02:08:42;;;;;;;14.30;11.33;;;;;;;;;;5060310;28;20407;-81
2021/07/24 02:11:09;;;;;;;13.90;12.10;;;;;;;;;;5058714;28;20415;-78
2021/07/24 02:13:35;;;;;;;14.17;10.57;;;;;;;;;;5059366;28;20390;-79
2021/07/24 02:16:01;;;;;;;11.80;10.60;;;;;;;;;;5059791;28;20655;-80
2021/07/24 02:18:28;;;;;;;12.33;10.30;;;;;;;;;;5059808;28;20800;-78
2021/07/24 02:20:55;;;;;;;11.03;9.90;;;;;;;;;;5059876;28;20442;-77
2021/07/24 02:23:21;;;;;;;12.53;10.17;;;;;;;;;;5059293;28;20827;-79
2021/07/24 02:25:47;;;;;;;13.33;11.47;;;;;;;;;;5041857;28;20814;-80
2021/07/24 02:28:14;;;;;;;12.20;10.40;;;;;;;;;;5059816;28;20387;-78
2021/07/24 02:30:40;;;;;;;13.60;11.70;;;;;;;;;;5059612;28;20827;-80
2021/07/24 02:33:05;;;;;;;12.17;10.90;;;;;;;;;;5059463;28;20390;-78
2021/07/24 02:35:31;;;;;;;12.57;10.60;;;;;;;;;;5058177;28;20472;-79
2021/07/24 02:37:58;;;;;;;13.80;11.67;;;;;;;;;;5058188;28;20937;-79
2021/07/24 02:40:24;;;;;;;14.90;10.30;;;;;;;;;;5059365;28;20474;-79
2021/07/24 02:42:50;;;;;;;12.60;11.30;;;;;;;;;;5057762;28;20416;-80
2021/07/24 02:45:16;;;;;;;15.03;11.33;;;;;;;;;;5058094;28;20501;-80
2021/07/24 02:47:42;;;;;;;12.17;10.70;;;;;;;;;;5059232;28;20386;-79
2021/07/24 02:50:08;;;;;;;16.23;12.67;;;;;;;;;;5058085;28;20515;-80
2021/07/24 02:52:34;;;;;;;14.10;11.40;;;;;;;;;;5059185;28;20404;-79
2021/07/24 02:55:00;;;;;;;17.70;12.60;;;;;;;;;;5059040;28;20466;-79
2021/07/24 02:57:26;;;;;;;17.70;13.43;;;;;;;;;;5059186;28;20827;-79
2021/07/24 02:59:52;;;;;;;16.87;12.60;;;;;;;;;;5057977;28;20470;-78
2021/07/24 03:02:19;;;;;;;14.43;12.73;;;;;;;;;;5059186;28;20503;-81
2021/07/24 03:04:45;;;;;;;16.40;12.33;;;;;;;;;;5058686;28;20439;-80
2021/07/24 03:07:11;;;;;;;14.23;12.10;;;;;;;;;;5059065;28;20412;-77
2021/07/24 03:09:37;;;;;;;15.40;13.47;;;;;;;;;;5059053;28;20408;-81
2021/07/24 03:12:04;;;;;;;13.87;12.20;;;;;;;;;;5054526;28;20521;-80
2021/07/24 03:14:30;;;;;;;16.70;13.33;;;;;;;;;;5055543;28;20439;-78
2021/07/24 03:16:56;;;;;;;16.00;13.47;;;;;;;;;;5055993;28;20503;-78
2021/07/24 03:19:22;;;;;;;14.60;12.40;;;;;;;;;;5038160;28;20562;-78
2021/07/24 03:21:48;;;;;;;16.93;11.73;;;;;;;;;;5055959;28;20778;-80
2021/07/24 03:24:14;;;;;;;16.43;13.83;;;;;;;;;;5054587;28;20557;-80
2021/07/24 03:26:40;;;;;;;13.20;12.00;;;;;;;;;;5056594;28;20427;-82
2021/07/24 03:29:07;;;;;;;13.23;11.83;;;;;;;;;;5055609;28;20938;-80
2021/07/24 03:31:33;;;;;;;13.53;12.13;;;;;;;;;;5054470;28;20390;-78
2021/07/24 03:33:59;;;;;;;15.90;13.57;;;;;;;;;;5055190;28;20470;-81
2021/07/24 03:36:25;;;;;;;18.33;12.80;;;;;;;;;;5054353;28;20405;-81
2021/07/24 03:38:51;;;;;;;13.20;11.63;;;;;;;;;;5055384;28;20455;-80
2021/07/24 03:41:17;;;;;;;13.67;12.07;;;;;;;;;;5054247;28;20383;-77
2021/07/24 03:43:43;;;;;;;14.03;12.60;;;;;;;;;;5055085;28;20767;-79
2021/07/24 03:46:15;;;;;;;14.63;13.13;;;;;;;;;;5055208;28;20413;-78
2021/07/24 03:48:41;;;;;;;13.77;12.47;;;;;;;;;;5055165;28;20465;-78
2021/07/24 03:51:11;;;;;;;16.03;13.30;;;;;;;;;;5055338;28;20414;-81
2021/07/24 03:53:37;;;;;;;12.17;11.00;;;;;;;;;;5054777;28;20412;-79
2021/07/24 03:56:04;;;;;;;15.03;11.70;;;;;;;;;;5054998;28;20752;-81
2021/07/24 03:58:29;;;;;;;15.60;12.17;;;;;;;;;;5054716;28;20397;-78
2021/07/24 04:00:55;;;;;;;13.23;10.83;;;;;;;;;;5054990;28;20408;-80
2021/07/24 04:03:24;;;;;;;13.90;12.50;;;;;;;;;;5053383;28;20773;-79
2021/07/24 04:05:54;;;;;;;17.30;12.20;;;;;;;;;;5053444;28;20478;-81
2021/07/24 04:08:21;;;;;;;13.00;11.70;;;;;;;;;;5055137;28;20412;-79
2021/07/24 04:10:47;;;;;;;13.60;11.60;;;;;;;;;;5054739;28;20490;-81
2021/07/24 04:13:13;;;;;;;14.80;10.37;;;;;;;;;;5054818;28;20466;-78
2021/07/24 04:15:39;;;;;;;11.97;10.87;;;;;;;;;;5054734;28;20463;-81
2021/07/24 04:18:07;;;;;;;16.03;11.73;;;;;;;;;;5053543;28;20416;-78
2021/07/24 04:20:35;;;;;;;14.33;12.70;;;;;;;;;;5054655;28;20495;-80
2021/07/24 04:23:01;;;;;;;13.17;11.50;;;;;;;;;;5053958;28;20416;-78
2021/07/24 04:25:27;;;;;;;14.50;11.90;;;;;;;;;;5053183;28;20960;-78
2021/07/24 04:27:53;;;;;;;14.53;11.70;;;;;;;;;;5054494;28;20419;-80
2021/07/24 04:30:19;;;;;;;13.07;11.43;;;;;;;;;;5054734;28;20420;-80
2021/07/24 04:32:45;;;;;;;22.20;12.60;;;;;;;;;;5054186;28;20796;-79
2021/07/24 04:35:11;;;;;;;15.37;11.63;;;;;;;;;;5054427;28;20448;-78
2021/07/24 04:37:37;;;;;;;13.80;12.33;;;;;;;;;;5053210;28;20424;-80
2021/07/24 04:40:03;;;;;;;13.87;12.50;;;;;;;;;;5054347;28;20520;-81
2021/07/24 04:42:29;;;;;;;13.20;11.80;;;;;;;;;;5054154;28;20408;-79
2021/07/24 04:44:55;;;;;;;16.43;13.33;;;;;;;;;;5053609;28;20455;-78
2021/07/24 04:47:21;;;;;;;18.43;12.60;;;;;;;;;;5054248;28;20415;-80
2021/07/24 04:49:51;;;;;;;20.20;15.10;;;;;;;;;;5054086;28;20390;-81
2021/07/24 04:52:19;;;;;;;16.30;14.63;;;;;;;;;;5054062;28;20391;-78
2021/07/24 04:54:46;;;;;;;15.70;14.03;;;;;;;;;;5053446;28;20402;-79
2021/07/24 04:57:12;;;;;;;17.37;14.20;;;;;;;;;;5053916;28;20403;-79
2021/07/24 04:59:47;;;;;;;15.70;13.70;;;;;;;;;;5053725;28;20463;-79
2021/07/24 05:02:17;;;;;;;15.00;13.40;;;;;;;;;;5052693;28;20821;-79
2021/07/24 05:04:44;;;;;;;15.40;12.37;;;;;;;;;;5053111;28;20422;-79
2021/07/24 05:07:11;;;;;;;21.10;14.03;;;;;;;;;;5053466;28;20386;-80
2021/07/24 05:09:37;;;;;;;15.40;13.73;;;;;;;;;;5053677;28;20383;-79
2021/07/24 05:12:03;;;;;;;17.97;13.20;;;;;;;;;;5053878;28;20386;-81
2021/07/24 05:14:29;;;;;;;16.20;14.57;;;;;;;;;;5053300;28;20432;-80
2021/07/24 05:17:04;;;;;;;19.27;14.23;;;;;;;;;;5053491;28;20391;-79
2021/07/24 05:19:30;;;;;;;14.87;13.27;;;;;;;;;;5053559;28;20438;-78
2021/07/24 05:21:56;;;;;;;16.10;13.40;;;;;;;;;;5053595;28;20415;-78
2021/07/24 05:24:22;;;;;;;15.20;13.70;;;;;;;;;;5053158;28;20969;-80
2021/07/24 05:26:47;;;;;;;16.43;14.33;;;;;;;;;;5052420;28;20498;-81
2021/07/24 05:29:14;;;;;;;18.47;14.60;;;;;;;;;;5053254;28;20418;-78
2021/07/24 05:31:40;;;;;;;17.07;14.20;;;;;;;;;;5053495;28;20390;-80
2021/07/24 05:34:06;;;;;;;15.13;13.60;;;;;;;;;;5052926;28;20797;-79
2021/07/24 05:36:32;;;;;;;16.20;14.70;;;;;;;;;;5053006;28;20416;-78
2021/07/24 05:38:58;;;;;;;17.60;15.33;;;;;;;;;;5053258;28;20464;-81
2021/07/24 05:41:24;;;;;;;16.70;14.63;;;;;;;;;;5053190;28;20622;-78
2021/07/24 05:43:50;;;;;;;16.47;14.83;;;;;;;;;;5052903;28;20386;-79
2021/07/24 05:46:16;;;;;;;17.63;15.67;;;;;;;;;;5053347;28;20413;-80
2021/07/24 05:48:42;;;;;;;20.33;16.37;;;;;;;;;;5051856;28;20398;-80
2021/07/24 05:51:08;;;;;;;19.47;15.50;;;;;;;;;;5053016;28;20426;-77
2021/07/24 05:53:34;;;;;;;18.50;15.80;;;;;;;;;;5052902;28;20416;-79
2021/07/24 05:56:00;;;;;;;19.30;16.50;;;;;;;;;;5053073;28;20471;-81
2021/07/24 05:58:26;;;;;;;20.63;16.83;;;;;;;;;;5053089;28;20421;-78
2021/07/24 06:00:52;;;;;;;19.27;15.87;;;;;;;;;;5053027;28;20408;-81
2021/07/24 06:03:18;;;;;;;18.83;16.67;;;;;;;;;;5051446;28;20901;-79
2021/07/24 06:05:44;;;;;;;20.23;15.17;;;;;;;;;;5052801;28;20447;-79
2021/07/24 06:08:10;;;;;;;17.17;15.17;;;;;;;;;;5053150;28;20448;-78
2021/07/24 06:10:36;;;;;;;16.43;14.63;;;;;;;;;;5053351;28;20490;-76
2021/07/24 06:13:03;;;;;;;18.20;14.73;;;;;;;;;;5052819;28;20779;-79
2021/07/24 06:15:30;;;;;;;18.60;16.17;;;;;;;;;;5054919;28;20428;-78
2021/07/24 06:17:56;;;;;;;17.87;16.00;;;;;;;;;;5052917;28;20387;-79
2021/07/24 06:20:22;;;;;;;16.37;14.67;;;;;;;;;;5051631;28;20440;-80
2021/07/24 06:22:48;;;;;;;19.50;15.30;;;;;;;;;;5051549;28;20415;-78
2021/07/24 06:25:14;;;;;;;16.80;15.00;;;;;;;;;;5052842;28;20440;-80
2021/07/24 06:27:41;;;;;;;18.77;16.83;;;;;;;;;;5052831;28;20473;-79
2021/07/24 06:30:07;;;;;;;17.13;14.83;;;;;;;;;;5052731;28;20422;-78
2021/07/24 06:32:33;;;;;;;19.53;15.53;;;;;;;;;;5052590;28;20451;-78
2021/07/24 06:34:59;;;;;;;16.07;14.07;;;;;;;;;;5034706;28;20864;-78
2021/07/24 06:37:25;;;;;;;18.60;13.23;;;;;;;;;;5052643;28;20436;-79
2021/07/24 06:39:51;;;;;;;14.90;13.30;;;;;;;;;;5052524;28;20506;-78
2021/07/24 06:42:17;;;;;;;15.77;13.70;;;;;;;;;;5052971;28;20895;-79
2021/07/24 06:44:43;;;;;;;15.17;12.90;;;;;;;;;;5051199;28;20523;-80
2021/07/24 06:47:09;;;;;;;13.83;11.90;;;;;;;;;;5055315;28;20416;-81
2021/07/24 06:49:35;;;;;;;17.27;14.90;;;;;;;;;;5055105;28;20527;-80
2021/07/24 06:52:01;;;;;;;16.57;13.20;;;;;;;;;;5055033;28;20902;-79
2021/07/24 06:54:27;;;;;;;21.73;12.70;;;;;;;;;;5055827;28;20435;-81
2021/07/24 06:56:53;;;;;;;12.80;10.47;;;;;;;;;;5054952;28;20527;-80
2021/07/24 06:59:19;;;;;;;13.03;11.00;;;;;;;;;;5056060;28;20470;-79
2021/07/24 07:01:45;;;;;;;11.67;10.47;;;;;;;;;;5056016;28;20404;-79
2021/07/24 07:04:11;;;;;;;16.23;10.27;;;;;;;;;;5054166;28;20442;-80
2021/07/24 07:06:40;;;;;;;12.10;10.70;;;;;;;;;;5055969;28;20769;-78
2021/07/24 07:09:06;;;;;;;13.93;11.27;;;;;;;;;;5056034;28;20418;-81
2021/07/24 07:11:32;;;;;;;12.63;11.10;;;;;;;;;;5056130;28;20408;-79
2021/07/24 07:13:58;;;;;;;12.50;10.53;;;;;;;;;;5055374;28;20823;-80
2021/07/24 07:16:24;;;;;;;13.97;10.50;;;;;;;;;;5055856;28;20508;-80
2021/07/24 07:18:50;;;;;;;14.90;12.03;;;;;;;;;;5055698;28;20467;-81
2021/07/24 07:21:16;;;;;;;17.13;11.87;;;;;;;;;;5054611;28;20813;-81
2021/07/24 07:23:42;;;;;;;13.87;12.03;;;;;;;;;;5055328;28;20450;-81
2021/07/24 07:26:08;;;;;;;16.47;11.40;;;;;;;;;;5055639;28;20436;-82
2021/07/24 07:28:34;;;;;;;12.13;10.63;;;;;;;;;;5055884;28;20445;-81
2021/07/24 07:31:00;;;;;;;11.23;10.07;;;;;;;;;;5055855;28;20404;-80
2021/07/24 07:33:26;;;;;;;12.40;10.70;;;;;;;;;;5055441;28;20400;-80
2021/07/24 07:35:52;;;;;;;13.03;11.63;;;;;;;;;;5055416;28;20428;-80
2021/07/24 07:38:18;;;;;;;13.20;10.43;;;;;;;;;;5055456;28;20928;-81
2021/07/24 07:40:44;;;;;;;16.10;11.40;;;;;;;;;;5055277;28;20460;-79
2021/07/24 07:43:11;;;;;;;14.80;11.80;;;;;;;;;;5055115;28;20765;-79
2021/07/24 07:45:37;;;;;;;13.93;11.80;;;;;;;;;;5054085;28;20902;-79
2021/07/24 07:48:04;;;;;;;13.20;11.80;;;;;;;;;;5053930;28;20897;-80
2021/07/24 07:50:31;;;;;;;15.50;11.80;;;;;;;;;;5055110;28;20843;-79
2021/07/24 07:52:57;;;;;;;16.47;12.20;;;;;;;;;;5054934;28;20487;-81
2021/07/24 07:55:22;;;;;;;15.50;12.13;;;;;;;;;;5054980;28;20578;-79
2021/07/24 07:57:48;;;;;;;14.40;12.97;;;;;;;;;;5054371;28;20408;-79
2021/07/24 08:00:15;;;;;;;17.77;12.83;;;;;;;;;;5054825;28;20533;-78
2021/07/24 08:02:41;;;;;;;13.33;11.93;;;;;;;;;;5054763;28;20417;-81
2021/07/24 08:05:07;;;;;;;14.03;12.20;;;;;;;;;;5054504;28;20456;-82
2021/07/24 08:07:33;;;;;;;15.10;13.30;;;;;;;;;;5054861;28;20439;-78
2021/07/24 08:09:59;;;;;;;15.33;11.90;;;;;;;;;;5054820;28;20451;-77
2021/07/24 08:12:25;;;;;;;19.37;12.97;;;;;;;;;;5053723;28;20420;-79
2021/07/24 08:14:52;;;;;;;14.13;11.70;;;;;;;;;;5053298;28;20432;-80
2021/07/24 08:17:21;;;;;;;14.43;11.53;;;;;;;;;;5054776;28;20408;-79
2021/07/24 08:19:47;;;;;;;11.17;9.97;;;;;;;;;;5054796;28;20451;-79
2021/07/24 08:22:14;;;;;;;14.33;10.87;;;;;;;;;;5054655;28;20479;-78
2021/07/24 08:24:40;;;;;;;13.57;10.30;;;;;;;;;;5054136;28;20427;-79
2021/07/24 08:27:06;;;;;;;10.90;9.30;;;;;;;;;;5053480;28;20457;-79
2021/07/24 08:29:32;;;;;;;11.50;9.93;;;;;;;;;;5054514;28;20415;-82
2021/07/24 08:31:58;;;;;;;10.77;9.67;;;;;;;;;;5053077;28;20420;-81
2021/07/24 08:34:25;;;;;;;10.47;9.47;;;;;;;;;;5054171;28;20432;-80
2021/07/24 08:36:51;;;;;;;11.43;10.23;;;;;;;;;;5054227;28;20804;-79
2021/07/24 08:39:17;;;;;;;13.73;11.00;;;;;;;;;;5054265;28;20467;-80
2021/07/24 08:41:43;;;;;;;12.80;11.10;;;;;;;;;;5054288;28;20884;-80
2021/07/24 08:44:10;;;;;;;12.23;10.97;;;;;;;;;;5036205;28;20442;-79
2021/07/24 08:46:36;;;;;;;11.97;10.60;;;;;;;;;;5054215;28;20752;-81
2021/07/24 08:49:02;;;;;;;11.10;10.00;;;;;;;;;;5054231;28;20416;-78
2021/07/24 08:51:29;;;;;;;11.17;10.13;;;;;;;;;;5054304;28;20841;-78
2021/07/24 08:53:55;;;;;;;12.97;11.00;;;;;;;;;;5052415;28;20452;-81
2021/07/24 08:56:24;;;;;;;15.13;11.17;;;;;;;;;;5054032;28;20424;-81
2021/07/24 08:58:53;;;;;;;12.23;10.93;;;;;;;;;;5053733;28;20491;-80
2021/07/24 09:01:20;;;;;;;16.37;11.87;;;;;;;;;;5053954;28;20781;-81
2021/07/24 09:03:46;;;;;;;11.87;10.30;;;;;;;;;;5053482;28;20866;-79
2021/07/24 09:06:16;;;;;;;12.47;11.17;;;;;;;;;;5053572;28;20483;-80
2021/07/24 09:08:42;;;;;;;12.83;10.73;;;;;;;;;;5053578;28;20401;-80
2021/07/24 09:11:08;;;;;;;13.60;11.60;;;;;;;;;;5052813;28;20415;-80
2021/07/24 09:13:34;;;;;;;12.77;11.47;;;;;;;;;;5053290;28;20416;-82
2021/07/24 09:16:00;;;;;;;11.57;10.20;;;;;;;;;;5053653;28;20519;-79
2021/07/24 09:18:26;;;;;;;14.67;11.40;;;;;;;;;;5052523;28;20482;-80
2021/07/24 09:20:52;;;;;;;12.60;11.30;;;;;;;;;;5053408;28;20428;-78
2021/07/24 09:23:25;;;;;;;11.97;10.70;;;;;;;;;;5035179;28;20764;-78
2021/07/24 09:25:52;;;;;;;13.33;11.93;;;;;;;;;;5051968;28;20447;-79
2021/07/24 09:28:18;;;;;;;14.70;11.97;;;;;;;;;;5052015;28;20439;-82
2021/07/24 09:30:44;;;;;;;12.83;11.57;;;;;;;;;;5053505;28;20918;-80
2021/07/24 09:33:14;;;;;;;15.70;11.90;;;;;;;;;;5053269;28;20423;-79
2021/07/24 09:35:41;;;;;;;16.90;12.30;;;;;;;;;;5053191;28;20427;-79
2021/07/24 09:38:26;;;;;;;12.63;11.30;;;;;;;;;;5053546;28;20404;-81
2021/07/24 09:40:52;;;;;;;13.40;12.00;;;;;;;;;;5053171;28;20465;-76
2021/07/24 09:43:31;;;;;;;14.60;11.83;;;;;;;;;;5052772;28;20375;-76
2021/07/24 09:46:10;;;;;;;14.27;11.63;;;;;;;;;;5053133;28;20501;-79
2021/07/24 09:48:36;;;;;;;14.47;11.67;;;;;;;;;;5052931;28;20444;-78
2021/07/24 09:51:02;;;;;;;15.30;11.80;;;;;;;;;;5052962;28;20473;-79
2021/07/24 09:53:44;;;;;;;13.20;10.90;;;;;;;;;;5052521;28;20439;-78
2021/07/24 09:56:14;;;;;;;13.10;10.93;;;;;;;;;;5052900;28;20505;-77
2021/07/24 09:58:40;;;;;;;12.80;11.03;;;;;;;;;;5052883;28;20817;-78
2021/07/24 10:01:08;;;;;;;14.80;10.87;;;;;;;;;;5051508;28;20412;-78
2021/07/24 10:03:38;;;;;;;12.57;11.27;;;;;;;;;;5051374;28;20503;-77
2021/07/24 10:06:14;;;;;;;12.27;11.07;;;;;;;;;;5052849;28;20475;-80
2021/07/24 10:08:42;;;;;;;11.90;10.80;;;;;;;;;;5052875;28;20427;-77
2021/07/24 10:11:08;;;;;;;12.50;11.30;;;;;;;;;;5052855;28;20789;-74
2021/07/24 10:13:34;;;;;;;10.80;9.77;;;;;;;;;;5052443;28;20404;-78
2021/07/24 10:16:00;;;;;;;13.07;11.87;;;;;;;;;;5052779;28;20420;-76
2021/07/24 10:18:27;;;;;;;12.60;11.30;;;;;;;;;;5052951;28;20477;-79
2021/07/24 10:20:53;;;;;;;13.83;12.40;;;;;;;;;;5053506;28;20876;-76
2021/07/24 10:23:26;;;;;;;19.10;11.20;;;;;;;;;;5056502;28;20404;-79
2021/07/24 10:25:58;;;;;;;14.57;12.33;;;;;;;;;;5056697;28;20427;-78
2021/07/24 10:28:27;;;;;;;12.37;10.60;;;;;;;;;;5056964;28;20412;-78
2021/07/24 10:30:55;;;;;;;15.30;11.73;;;;;;;;;;5057065;28;20792;-76
2021/07/24 10:33:22;;;;;;;12.20;10.10;;;;;;;;;;5056357;28;20502;-78
2021/07/24 10:35:48;;;;;;;13.03;11.20;;;;;;;;;;5056576;28;20781;-76
2021/07/24 10:38:28;;;;;;;15.57;12.20;;;;;;;;;;5056519;28;20415;-77
2021/07/24 10:40:54;;;;;;;18.50;12.30;;;;;;;;;;5056471;28;20459;-76
2021/07/24 10:43:39;;;;;;;14.60;11.70;;;;;;;;;;5055909;28;20408;-76
2021/07/24 10:46:05;;;;;;;13.60;12.20;;;;;;;;;;5056420;28;20423;-77
2021/07/24 10:48:43;;;;;;;17.70;12.03;;;;;;;;;;5056363;28;20915;-77
2021/07/24 10:51:14;;;;;;;13.17;11.77;;;;;;;;;;5056711;28;20408;-76
2021/07/24 10:53:59;;;;;;;13.77;10.97;;;;;;;;;;5055900;28;20490;-77
2021/07/24 10:56:38;;;;;;;13.13;10.90;;;;;;;;;;5056393;28;20408;-77
2021/07/24 10:59:22;;;;;;;13.10;11.20;;;;;;;;;;5056289;28;20425;-76
2021/07/24 11:01:49;;;;;;;12.90;11.60;;;;;;;;;;5056227;28;20931;-75
2021/07/24 11:04:34;;;;;;;14.10;12.50;;;;;;;;;;5055560;28;21029;-76
2021/07/24 11:07:19;;;;;;;13.83;12.07;;;;;;;;;;5055893;28;20442;-77
2021/07/24 11:09:45;;;;;;;14.57;12.53;;;;;;;;;;5055838;28;20498;-77
2021/07/24 11:12:15;;;;;;;13.60;11.90;;;;;;;;;;5056113;28;20514;-74
2021/07/24 11:14:42;;;;;;;12.90;11.40;;;;;;;;;;5055507;28;20475;-78
2021/07/24 11:17:08;;;;;;;17.47;12.70;;;;;;;;;;5055935;28;20412;-76
2021/07/24 11:19:38;;;;;;;14.07;11.70;;;;;;;;;;5055051;28;20447;-75
2021/07/24 11:22:14;;;;;;;18.53;13.40;;;;;;;;;;5055091;28;20461;-77
2021/07/24 11:24:41;;;;;;;15.07;12.73;;;;;;;;;;5055245;28;20419;-76
2021/07/24 11:27:08;;;;;;;15.43;13.37;;;;;;;;;;5056207;28;20408;-77
2021/07/24 11:29:34;;;;;;;17.57;12.40;;;;;;;;;;5055487;28;20408;-76
2021/07/24 11:32:01;;;;;;;15.63;13.67;;;;;;;;;;5054817;28;20774;-78
2021/07/24 11:34:29;;;;;;;18.33;14.27;;;;;;;;;;5054630;28;20501;-76
2021/07/24 11:36:55;;;;;;;17.00;14.97;;;;;;;;;;5055461;28;20784;-76
2021/07/24 11:39:24;;;;;;;15.40;13.80;;;;;;;;;;5055627;28;20858;-78
2021/07/24 11:41:51;;;;;;;17.17;14.70;;;;;;;;;;5055634;28;20408;-75
2021/07/24 11:44:24;;;;;;;18.53;15.87;;;;;;;;;;5055045;28;20414;-77
2021/07/24 11:47:04;;;;;;;17.23;14.47;;;;;;;;;;5054119;28;20416;-77
2021/07/24 11:49:30;;;;;;;17.77;15.30;;;;;;;;;;5055121;28;20408;-77
2021/07/24 11:51:56;;;;;;;18.13;15.60;;;;;;;;;;5055104;28;20454;-77
2021/07/24 11:54:40;;;;;;;21.00;15.33;;;;;;;;;;5054594;28;20964;-77
2021/07/24 11:57:06;;;;;;;18.57;16.67;;;;;;;;;;5055277;28;20462;-76
2021/07/24 11:59:33;;;;;;;18.20;15.33;;;;;;;;;;5055009;28;20491;-77
2021/07/24 12:02:00;;;;;;;20.40;16.93;;;;;;;;;;5054695;28;20416;-78
2021/07/24 12:04:26;;;;;;;18.70;16.70;;;;;;;;;;5054165;28;20455;-77
2021/07/24 12:07:03;;;;;;;25.37;18.30;;;;;;;;;;5054871;28;20414;-77
2021/07/24 12:09:30;;;;;;;21.40;18.40;;;;;;;;;;5054896;28;20415;-76
2021/07/24 12:11:58;;;;;;;24.77;19.10;;;;;;;;;;5054771;28;20419;-75
2021/07/24 12:14:25;;;;;;;19.53;16.90;;;;;;;;;;5054138;28;20452;-76
2021/07/24 12:17:03;;;;;;;21.30;18.00;;;;;;;;;;5054667;28;20379;-76
2021/07/24 12:19:35;;;;;;;22.50;18.20;;;;;;;;;;5054546;28;20451;-76
2021/07/24 12:22:11;;;;;;;21.63;19.43;;;;;;;;;;5054678;28;20390;-78
2021/07/24 12:24:37;;;;;;;26.27;20.50;;;;;;;;;;5053968;28;20425;-76
2021/07/24 12:27:10;;;;;;;21.10;18.90;;;;;;;;;;5053427;28;20412;-77
2021/07/24 12:29:50;;;;;;;21.40;19.10;;;;;;;;;;5054505;28;20394;-77
2021/07/24 12:32:16;;;;;;;24.33;20.57;;;;;;;;;;5054210;28;20411;-77
2021/07/24 12:34:42;;;;;;;21.43;19.10;;;;;;;;;;5053649;28;21000;-76
2021/07/24 12:37:09;;;;;;;25.20;19.30;;;;;;;;;;5053937;28;20415;-76
2021/07/24 12:39:38;;;;;;;21.27;19.07;;;;;;;;;;5054244;28;20507;-77
2021/07/24 12:42:04;;;;;;;20.13;18.03;;;;;;;;;;5054055;28;20497;-77
2021/07/24 12:44:31;;;;;;;25.80;20.50;;;;;;;;;;5052978;28;20946;-77
2021/07/24 12:47:16;;;;;;;24.30;20.70;;;;;;;;;;5054081;28;20769;-76
2021/07/24 12:49:44;;;;;;;21.77;19.07;;;;;;;;;;5053946;28;20777;-75
2021/07/24 12:52:23;;;;;;;22.60;20.17;;;;;;;;;;5054051;28;20379;-76
2021/07/24 12:55:02;;;;;;;22.13;19.83;;;;;;;;;;5053668;28;20562;-75
2021/07/24 12:57:28;;;;;;;22.13;19.40;;;;;;;;;;5053886;28;20398;-75
2021/07/24 12:59:55;;;;;;;23.73;19.67;;;;;;;;;;5053525;28;20459;-77
2021/07/24 13:02:21;;;;;;;19.77;17.60;;;;;;;;;;5053681;28;20411;-76
2021/07/24 13:04:51;;;;;;;20.90;17.20;;;;;;;;;;5052737;28;20957;-76
2021/07/24 13:07:17;;;;;;;21.37;19.10;;;;;;;;;;5053669;28;20432;-76
2021/07/24 13:09:43;;;;;;;19.80;17.30;;;;;;;;;;5053652;28;20412;-76
2021/07/24 13:12:09;;;;;;;19.87;17.77;;;;;;;;;;5053757;28;20423;-76
2021/07/24 13:14:35;;;;;;;18.97;17.17;;;;;;;;;;5053079;28;20436;-75
2021/07/24 13:17:01;;;;;;;26.37;19.20;;;;;;;;;;5053507;28;20416;-77
2021/07/24 13:19:27;;;;;;;22.40;20.00;;;;;;;;;;5052269;28;20949;-77
2021/07/24 13:21:53;;;;;;;23.30;19.40;;;;;;;;;;5053454;28;20412;-76
2021/07/24 13:24:19;;;;;;;25.57;22.60;;;;;;;;;;5053162;28;20438;-76
2021/07/24 13:29:15;;;;;;;24.17;21.17;;;;;;;;;;5053439;28;20432;-76
2021/07/24 13:31:41;;;;;;;26.20;20.13;;;;;;;;;;5053357;28;20387;-76
2021/07/24 13:34:09;;;;;;;22.80;20.37;;;;;;;;;;5052951;28;20889;-76
2021/07/24 13:36:36;;;;;;;21.97;19.27;;;;;;;;;;5053290;28;20447;-76
2021/07/24 13:39:02;;;;;;;25.53;20.87;;;;;;;;;;5052999;28;20491;-76
2021/07/24 13:41:28;;;;;;;20.73;18.70;;;;;;;;;;5053044;28;20419;-76
2021/07/24 13:43:54;;;;;;;29.77;20.97;;;;;;;;;;5052876;28;20408;-76
2021/07/24 13:46:20;;;;;;;22.50;20.10;;;;;;;;;;5053118;28;20408;-75
2021/07/24 13:48:46;;;;;;;27.60;20.17;;;;;;;;;;5051891;28;20436;-74
2021/07/24 13:51:12;;;;;;;29.43;21.93;;;;;;;;;;5053217;28;20404;-74
2021/07/24 13:53:38;;;;;;;20.43;18.23;;;;;;;;;;5052850;28;20753;-75
2021/07/24 13:56:04;;;;;;;19.23;15.03;;;;;;;;;;5052411;28;20427;-76
2021/07/24 13:58:30;;;;;;;19.30;17.30;;;;;;;;;;5053100;28;20390;-76
2021/07/24 14:01:00;;;;;;;19.57;17.23;;;;;;;;;;5051542;28;20442;-75
2021/07/24 14:03:26;;;;;;;21.90;17.23;;;;;;;;;;5052399;28;20590;-76
2021/07/24 14:05:58;;;;;;;20.23;17.60;;;;;;;;;;5052773;28;20579;-77
2021/07/24 14:08:24;;;;;;;19.13;17.10;;;;;;;;;;5052990;28;20404;-77
2021/07/24 14:10:50;;;;;;;19.30;17.30;;;;;;;;;;5052775;28;20495;-74
2021/07/24 14:13:16;;;;;;;19.93;16.10;;;;;;;;;;5052446;28;20966;-76
2021/07/24 14:15:42;;;;;;;21.83;14.90;;;;;;;;;;5052783;28;20825;-76
2021/07/24 14:18:08;;;;;;;16.87;15.00;;;;;;;;;;5052859;28;20424;-75
2021/07/24 14:20:34;;;;;;;21.33;15.70;;;;;;;;;;5052776;28;20467;-76
2021/07/24 14:23:00;;;;;;;19.40;17.40;;;;;;;;;;5052474;28;20848;-76
2021/07/24 14:25:26;;;;;;;18.60;16.20;;;;;;;;;;5052557;28;20431;-75